Terminal Aerodrome Forecast
Issued by NWS

Home | Current Version | Previous Version | Text Only | Print | Product List | Glossary On
Versions: 1 2 3 4 5 6 7 8 9 10 11 12 13 14 15 16 17 18 19 20 21 22 23 24 25
000
FTUS46 KSGX 231100
TAFSAN
TAF
KSAN 231133Z 2312/2418 VRB03KT P6SM FEW012 SCT250
      TEMPO 2312/2314 OVC012
     FM232000 26009KT P6SM FEW250
     FM240200 VRB05KT P6SM FEW015
     FM240600 VRB03KT P6SM OVC014
     FM241600 VRB04KT P6SM FEW015=

USA.gov is the U.S. government's official web portal to all federal, state and local government web resources and services.